sensor_id;sensor_type;location;lat;lon;timestamp;temperature;humidity
5870;DHT22;2961;47.702;9.410;2022-10-17T00:00:05;9.70;99.90
5870;DHT22;2961;47.702;9.410;2022-10-17T00:02:32;9.60;99.90
5870;DHT22;2961;47.702;9.410;2022-10-17T00:04:59;9.50;99.90
5870;DHT22;2961;47.702;9.410;2022-10-17T00:07:25;9.60;99.90
5870;DHT22;2961;47.702;9.410;2022-10-17T00:09:52;9.60;99.90
5870;DHT22;2961;47.702;9.410;2022-10-17T00:12:19;9.70;99.90
5870;DHT22;2961;47.702;9.410;2022-10-17T00:14:46;9.70;99.90
5870;DHT22;2961;47.702;9.410;2022-10-17T00:17:14;9.60;99.90
5870;DHT22;2961;47.702;9.410;2022-10-17T00:19:41;9.60;99.90
5870;DHT22;2961;47.702;9.410;2022-10-17T00:22:08;9.50;99.90
5870;DHT22;2961;47.702;9.410;2022-10-17T00:24:34;9.50;99.90
5870;DHT22;2961;47.702;9.410;2022-10-17T00:27:01;9.40;99.90
5870;DHT22;2961;47.702;9.410;2022-10-17T00:29:28;9.30;99.90
5870;DHT22;2961;47.702;9.410;2022-10-17T00:31:55;9.20;99.90
5870;DHT22;2961;47.702;9.410;2022-10-17T00:34:23;9.20;99.90
5870;DHT22;2961;47.702;9.410;2022-10-17T00:36:50;9.10;99.90
5870;DHT22;2961;47.702;9.410;2022-10-17T00:39:17;9.20;99.90
5870;DHT22;2961;47.702;9.410;2022-10-17T00:41:45;9.30;99.90
5870;DHT22;2961;47.702;9.410;2022-10-17T00:47:19;9.40;99.90
5870;DHT22;2961;47.702;9.410;2022-10-17T00:49:49;9.30;99.90
5870;DHT22;2961;47.702;9.410;2022-10-17T00:52:18;9.20;99.90
5870;DHT22;2961;47.702;9.410;2022-10-17T00:54:48;9.20;99.90
5870;DHT22;2961;47.702;9.410;2022-10-17T00:57:17;9.20;99.90
5870;DHT22;2961;47.702;9.410;2022-10-17T00:59:46;9.20;99.90
5870;DHT22;2961;47.702;9.410;2022-10-17T01:02:16;9.10;99.90
5870;DHT22;2961;47.702;9.410;2022-10-17T01:04:45;8.90;99.90
5870;DHT22;2961;47.702;9.410;2022-10-17T01:07:14;8.90;99.90
5870;DHT22;2961;47.702;9.410;2022-10-17T01:09:42;8.90;99.90
5870;DHT22;2961;47.702;9.410;2022-10-17T01:12:16;8.90;99.90
5870;DHT22;2961;47.702;9.410;2022-10-17T01:14:56;8.90;99.90
5870;DHT22;2961;47.702;9.410;2022-10-17T01:17:30;8.90;99.90
5870;DHT22;2961;47.702;9.410;2022-10-17T01:23:12;8.80;99.90
5870;DHT22;2961;47.702;9.410;2022-10-17T01:25:49;8.90;99.90
5870;DHT22;2961;47.702;9.410;2022-10-17T01:28:25;8.80;99.90
5870;DHT22;2961;47.702;9.410;2022-10-17T01:31:08;8.70;99.90
5870;DHT22;2961;47.702;9.410;2022-10-17T01:33:47;8.60;99.90
5870;DHT22;2961;47.702;9.410;2022-10-17T01:36:25;8.60;99.90
5870;DHT22;2961;47.702;9.410;2022-10-17T01:38:57;8.60;99.90
5870;DHT22;2961;47.702;9.410;2022-10-17T01:41:33;8.50;99.90
5870;DHT22;2961;47.702;9.410;2022-10-17T01:44:06;8.60;99.90
5870;DHT22;2961;47.702;9.410;2022-10-17T01:46:36;8.60;99.90
5870;DHT22;2961;47.702;9.410;2022-10-17T01:49:05;8.60;99.90
5870;DHT22;2961;47.702;9.410;2022-10-17T01:51:36;8.60;99.90
5870;DHT22;2961;47.702;9.410;2022-10-17T01:54:08;8.60;99.90
5870;DHT22;2961;47.702;9.410;2022-10-17T01:56:37;8.50;99.90
5870;DHT22;2961;47.702;9.410;2022-10-17T01:59:10;8.50;99.90
5870;DHT22;2961;47.702;9.410;2022-10-17T02:01:40;8.50;99.90
5870;DHT22;2961;47.702;9.410;2022-10-17T02:04:10;8.50;99.90
5870;DHT22;2961;47.702;9.410;2022-10-17T02:06:36;8.40;99.90
5870;DHT22;2961;47.702;9.410;2022-10-17T02:09:16;8.50;99.90
5870;DHT22;2961;47.702;9.410;2022-10-17T02:12:00;8.50;99.90
5870;DHT22;2961;47.702;9.410;2022-10-17T02:14:37;8.60;99.90
5870;DHT22;2961;47.702;9.410;2022-10-17T02:17:15;8.60;99.90
5870;DHT22;2961;47.702;9.410;2022-10-17T02:19:52;8.60;99.90
5870;DHT22;2961;47.702;9.410;2022-10-17T02:22:26;8.60;99.90
5870;DHT22;2961;47.702;9.410;2022-10-17T02:24:59;8.70;99.90
5870;DHT22;2961;47.702;9.410;2022-10-17T02:27:34;8.80;99.90
5870;DHT22;2961;47.702;9.410;2022-10-17T02:30:09;8.80;99.90
5870;DHT22;2961;47.702;9.410;2022-10-17T02:32:42;8.80;99.90
5870;DHT22;2961;47.702;9.410;2022-10-17T02:35:13;8.80;99.90
5870;DHT22;2961;47.702;9.410;2022-10-17T02:37:42;8.70;99.90
5870;DHT22;2961;47.702;9.410;2022-10-17T02:40:12;8.70;99.90
5870;DHT22;2961;47.702;9.410;2022-10-17T02:42:43;8.70;99.90
5870;DHT22;2961;47.702;9.410;2022-10-17T02:45:12;8.70;99.90
5870;DHT22;2961;47.702;9.410;2022-10-17T02:47:47;8.70;99.90
5870;DHT22;2961;47.702;9.410;2022-10-17T02:50:16;8.60;99.90
5870;DHT22;2961;47.702;9.410;2022-10-17T02:52:47;8.60;99.90
5870;DHT22;2961;47.702;9.410;2022-10-17T02:55:18;8.60;99.90
5870;DHT22;2961;47.702;9.410;2022-10-17T02:57:48;8.60;99.90
5870;DHT22;2961;47.702;9.410;2022-10-17T03:00:17;8.70;99.90
5870;DHT22;2961;47.702;9.410;2022-10-17T03:02:47;8.80;99.90
5870;DHT22;2961;47.702;9.410;2022-10-17T03:05:16;8.80;99.90
5870;DHT22;2961;47.702;9.410;2022-10-17T03:07:43;8.70;99.90
5870;DHT22;2961;47.702;9.410;2022-10-17T03:10:10;8.60;99.90
5870;DHT22;2961;47.702;9.410;2022-10-17T03:12:37;8.40;99.90
5870;DHT22;2961;47.702;9.410;2022-10-17T03:15:05;8.40;99.90
5870;DHT22;2961;47.702;9.410;2022-10-17T03:17:32;8.30;99.90
5870;DHT22;2961;47.702;9.410;2022-10-17T03:20:00;8.20;99.90
5870;DHT22;2961;47.702;9.410;2022-10-17T03:22:27;8.10;99.90
5870;DHT22;2961;47.702;9.410;2022-10-17T03:24:53;8.10;99.90
5870;DHT22;2961;47.702;9.410;2022-10-17T03:27:20;8.00;99.90
5870;DHT22;2961;47.702;9.410;2022-10-17T03:29:47;8.00;99.90
5870;DHT22;2961;47.702;9.410;2022-10-17T03:32:14;8.00;99.90
5870;DHT22;2961;47.702;9.410;2022-10-17T03:34:41;8.10;99.90
5870;DHT22;2961;47.702;9.410;2022-10-17T03:37:09;8.10;99.90
5870;DHT22;2961;47.702;9.410;2022-10-17T03:39:35;8.00;99.90
5870;DHT22;2961;47.702;9.410;2022-10-17T03:42:02;7.90;99.90
5870;DHT22;2961;47.702;9.410;2022-10-17T03:44:29;7.90;99.90
5870;DHT22;2961;47.702;9.410;2022-10-17T03:46:56;7.80;99.90
5870;DHT22;2961;47.702;9.410;2022-10-17T03:49:23;7.80;99.90
5870;DHT22;2961;47.702;9.410;2022-10-17T03:51:50;7.80;99.90
5870;DHT22;2961;47.702;9.410;2022-10-17T03:54:18;7.70;99.90
5870;DHT22;2961;47.702;9.410;2022-10-17T03:56:45;7.70;99.90
5870;DHT22;2961;47.702;9.410;2022-10-17T03:59:12;7.70;99.90
5870;DHT22;2961;47.702;9.410;2022-10-17T04:01:39;7.70;99.90
5870;DHT22;2961;47.702;9.410;2022-10-17T04:04:06;7.80;99.90
5870;DHT22;2961;47.702;9.410;2022-10-17T04:06:33;7.90;99.90
5870;DHT22;2961;47.702;9.410;2022-10-17T04:09:00;7.70;99.90
5870;DHT22;2961;47.702;9.410;2022-10-17T04:11:28;7.70;99.90
5870;DHT22;2961;47.702;9.410;2022-10-17T04:13:56;7.70;99.90
5870;DHT22;2961;47.702;9.410;2022-10-17T04:16:24;7.60;99.90
5870;DHT22;2961;47.702;9.410;2022-10-17T04:18:52;7.50;99.90
5870;DHT22;2961;47.702;9.410;2022-10-17T04:21:20;7.50;99.90
5870;DHT22;2961;47.702;9.410;2022-10-17T04:23:46;7.50;99.90
5870;DHT22;2961;47.702;9.410;2022-10-17T04:26:13;7.40;99.90
5870;DHT22;2961;47.702;9.410;2022-10-17T04:28:41;7.40;99.90
5870;DHT22;2961;47.702;9.410;2022-10-17T04:31:11;7.40;99.90
5870;DHT22;2961;47.702;9.410;2022-10-17T04:33:38;7.30;99.90
5870;DHT22;2961;47.702;9.410;2022-10-17T04:36:06;7.20;99.90
5870;DHT22;2961;47.702;9.410;2022-10-17T04:38:33;7.10;99.90
5870;DHT22;2961;47.702;9.410;2022-10-17T04:41:02;7.00;99.90
5870;DHT22;2961;47.702;9.410;2022-10-17T04:43:29;7.00;99.90
5870;DHT22;2961;47.702;9.410;2022-10-17T04:45:58;6.90;99.90
5870;DHT22;2961;47.702;9.410;2022-10-17T04:48:37;6.90;99.90
5870;DHT22;2961;47.702;9.410;2022-10-17T04:51:06;6.90;99.90
5870;DHT22;2961;47.702;9.410;2022-10-17T04:53:34;6.90;99.90
5870;DHT22;2961;47.702;9.410;2022-10-17T04:56:07;7.00;99.90
5870;DHT22;2961;47.702;9.410;2022-10-17T04:58:34;7.00;99.90
5870;DHT22;2961;47.702;9.410;2022-10-17T05:01:05;6.90;99.90
5870;DHT22;2961;47.702;9.410;2022-10-17T05:03:32;6.90;99.90
5870;DHT22;2961;47.702;9.410;2022-10-17T05:06:02;6.90;99.90
5870;DHT22;2961;47.702;9.410;2022-10-17T05:08:29;7.00;99.90
5870;DHT22;2961;47.702;9.410;2022-10-17T05:10:56;7.10;99.90
5870;DHT22;2961;47.702;9.410;2022-10-17T05:13:23;7.00;99.90
5870;DHT22;2961;47.702;9.410;2022-10-17T05:15:49;6.90;99.90
5870;DHT22;2961;47.702;9.410;2022-10-17T05:18:17;6.90;99.90
5870;DHT22;2961;47.702;9.410;2022-10-17T05:20:44;6.90;99.90
5870;DHT22;2961;47.702;9.410;2022-10-17T05:23:11;7.00;99.90
5870;DHT22;2961;47.702;9.410;2022-10-17T05:25:38;7.00;99.90
5870;DHT22;2961;47.702;9.410;2022-10-17T05:28:04;6.90;99.90
5870;DHT22;2961;47.702;9.410;2022-10-17T05:30:31;6.90;99.90
5870;DHT22;2961;47.702;9.410;2022-10-17T05:32:58;6.90;99.90
5870;DHT22;2961;47.702;9.410;2022-10-17T05:35:26;7.00;99.90
5870;DHT22;2961;47.702;9.410;2022-10-17T05:37:53;7.00;99.90
5870;DHT22;2961;47.702;9.410;2022-10-17T05:40:20;6.90;99.90
5870;DHT22;2961;47.702;9.410;2022-10-17T05:42:47;6.90;99.90
5870;DHT22;2961;47.702;9.410;2022-10-17T05:45:14;7.00;99.90
5870;DHT22;2961;47.702;9.410;2022-10-17T05:47:41;7.00;99.90
5870;DHT22;2961;47.702;9.410;2022-10-17T05:50:08;7.10;99.90
5870;DHT22;2961;47.702;9.410;2022-10-17T05:52:37;7.10;99.90
5870;DHT22;2961;47.702;9.410;2022-10-17T05:55:04;7.10;99.90
5870;DHT22;2961;47.702;9.410;2022-10-17T05:57:31;7.00;99.90
5870;DHT22;2961;47.702;9.410;2022-10-17T05:59:58;7.10;99.90
5870;DHT22;2961;47.702;9.410;2022-10-17T06:02:25;7.20;99.90
5870;DHT22;2961;47.702;9.410;2022-10-17T06:04:52;7.20;99.90
5870;DHT22;2961;47.702;9.410;2022-10-17T06:07:19;7.20;99.90
5870;DHT22;2961;47.702;9.410;2022-10-17T06:09:47;7.30;99.90
5870;DHT22;2961;47.702;9.410;2022-10-17T06:12:14;7.30;99.90
5870;DHT22;2961;47.702;9.410;2022-10-17T06:14:41;7.30;99.90
5870;DHT22;2961;47.702;9.410;2022-10-17T06:17:07;7.30;99.90
5870;DHT22;2961;47.702;9.410;2022-10-17T06:19:34;7.30;99.90
5870;DHT22;2961;47.702;9.410;2022-10-17T06:22:01;7.30;99.90
5870;DHT22;2961;47.702;9.410;2022-10-17T06:24:28;7.40;99.90
5870;DHT22;2961;47.702;9.410;2022-10-17T06:26:56;7.50;99.90
5870;DHT22;2961;47.702;9.410;2022-10-17T06:29:23;7.60;99.90
5870;DHT22;2961;47.702;9.410;2022-10-17T06:31:50;7.70;99.90
5870;DHT22;2961;47.702;9.410;2022-10-17T06:34:17;7.80;99.90
5870;DHT22;2961;47.702;9.410;2022-10-17T06:36:44;7.80;99.90
5870;DHT22;2961;47.702;9.410;2022-10-17T06:39:10;7.80;99.90
5870;DHT22;2961;47.702;9.410;2022-10-17T06:41:37;8.00;99.90
5870;DHT22;2961;47.702;9.410;2022-10-17T06:44:07;8.10;99.90
5870;DHT22;2961;47.702;9.410;2022-10-17T06:46:35;8.10;99.90
5870;DHT22;2961;47.702;9.410;2022-10-17T06:49:02;8.20;99.90
5870;DHT22;2961;47.702;9.410;2022-10-17T06:51:29;8.20;99.90
5870;DHT22;2961;47.702;9.410;2022-10-17T06:53:57;8.30;99.90
5870;DHT22;2961;47.702;9.410;2022-10-17T06:56:24;8.40;99.90
5870;DHT22;2961;47.702;9.410;2022-10-17T06:58:51;8.50;99.90
5870;DHT22;2961;47.702;9.410;2022-10-17T07:01:19;8.60;99.90
5870;DHT22;2961;47.702;9.410;2022-10-17T07:03:47;8.70;99.90
5870;DHT22;2961;47.702;9.410;2022-10-17T07:06:14;8.80;99.90
5870;DHT22;2961;47.702;9.410;2022-10-17T07:08:42;8.80;99.90
5870;DHT22;2961;47.702;9.410;2022-10-17T07:11:11;8.90;99.90
5870;DHT22;2961;47.702;9.410;2022-10-17T07:13:38;8.90;99.90
5870;DHT22;2961;47.702;9.410;2022-10-17T07:16:05;9.00;99.90
5870;DHT22;2961;47.702;9.410;2022-10-17T07:18:33;9.10;99.90
5870;DHT22;2961;47.702;9.410;2022-10-17T07:21:00;9.20;99.90
5870;DHT22;2961;47.702;9.410;2022-10-17T07:23:28;9.40;99.90
5870;DHT22;2961;47.702;9.410;2022-10-17T07:25:58;9.50;99.90
5870;DHT22;2961;47.702;9.410;2022-10-17T07:28:26;9.60;99.90
5870;DHT22;2961;47.702;9.410;2022-10-17T07:30:52;9.80;99.90
5870;DHT22;2961;47.702;9.410;2022-10-17T07:33:19;9.90;99.90
5870;DHT22;2961;47.702;9.410;2022-10-17T07:35:47;10.00;99.90
5870;DHT22;2961;47.702;9.410;2022-10-17T07:38:16;10.10;99.90
5870;DHT22;2961;47.702;9.410;2022-10-17T07:40:43;10.20;99.90
5870;DHT22;2961;47.702;9.410;2022-10-17T07:43:10;10.30;99.90
5870;DHT22;2961;47.702;9.410;2022-10-17T07:45:36;10.40;99.90
5870;DHT22;2961;47.702;9.410;2022-10-17T07:48:04;10.50;99.90
5870;DHT22;2961;47.702;9.410;2022-10-17T07:50:30;10.60;99.90
5870;DHT22;2961;47.702;9.410;2022-10-17T07:52:59;10.60;99.90
5870;DHT22;2961;47.702;9.410;2022-10-17T07:55:25;10.80;99.90
5870;DHT22;2961;47.702;9.410;2022-10-17T07:57:52;10.90;99.90
5870;DHT22;2961;47.702;9.410;2022-10-17T08:00:19;11.00;99.90
5870;DHT22;2961;47.702;9.410;2022-10-17T08:02:46;11.00;99.90
5870;DHT22;2961;47.702;9.410;2022-10-17T08:05:13;11.10;99.90
5870;DHT22;2961;47.702;9.410;2022-10-17T08:07:39;11.10;99.90
5870;DHT22;2961;47.702;9.410;2022-10-17T08:10:09;11.30;99.90
5870;DHT22;2961;47.702;9.410;2022-10-17T08:12:36;11.30;99.90
5870;DHT22;2961;47.702;9.410;2022-10-17T08:15:05;11.40;99.90
5870;DHT22;2961;47.702;9.410;2022-10-17T08:17:33;11.50;99.90
5870;DHT22;2961;47.702;9.410;2022-10-17T08:20:00;11.60;99.90
5870;DHT22;2961;47.702;9.410;2022-10-17T08:22:27;11.70;99.90
5870;DHT22;2961;47.702;9.410;2022-10-17T08:24:54;11.80;99.90
5870;DHT22;2961;47.702;9.410;2022-10-17T08:27:22;11.90;99.90
5870;DHT22;2961;47.702;9.410;2022-10-17T08:29:50;12.00;99.90
5870;DHT22;2961;47.702;9.410;2022-10-17T08:32:18;12.10;99.90
5870;DHT22;2961;47.702;9.410;2022-10-17T08:34:45;12.20;99.90
5870;DHT22;2961;47.702;9.410;2022-10-17T08:37:11;12.30;99.90
5870;DHT22;2961;47.702;9.410;2022-10-17T08:39:39;12.40;99.90
5870;DHT22;2961;47.702;9.410;2022-10-17T08:45:11;12.60;99.90
5870;DHT22;2961;47.702;9.410;2022-10-17T08:47:42;12.70;99.90
5870;DHT22;2961;47.702;9.410;2022-10-17T08:50:13;12.80;99.90
5870;DHT22;2961;47.702;9.410;2022-10-17T08:52:45;12.80;99.90
5870;DHT22;2961;47.702;9.410;2022-10-17T08:55:16;13.00;99.90
5870;DHT22;2961;47.702;9.410;2022-10-17T08:57:43;13.00;99.90
5870;DHT22;2961;47.702;9.410;2022-10-17T09:00:16;13.10;99.90
5870;DHT22;2961;47.702;9.410;2022-10-17T09:02:56;13.20;99.90
5870;DHT22;2961;47.702;9.410;2022-10-17T09:05:36;13.30;99.90
5870;DHT22;2961;47.702;9.410;2022-10-17T09:08:14;13.40;99.90
5870;DHT22;2961;47.702;9.410;2022-10-17T09:10:54;13.40;99.90
5870;DHT22;2961;47.702;9.410;2022-10-17T09:13:31;13.50;99.90
5870;DHT22;2961;47.702;9.410;2022-10-17T09:16:14;13.60;99.90
5870;DHT22;2961;47.702;9.410;2022-10-17T09:18:46;13.60;99.90
5870;DHT22;2961;47.702;9.410;2022-10-17T09:21:18;13.70;99.90
5870;DHT22;2961;47.702;9.410;2022-10-17T09:23:49;13.80;99.90
5870;DHT22;2961;47.702;9.410;2022-10-17T09:26:16;13.90;99.90
5870;DHT22;2961;47.702;9.410;2022-10-17T09:28:49;14.00;99.90
5870;DHT22;2961;47.702;9.410;2022-10-17T09:31:22;14.10;99.90
5870;DHT22;2961;47.702;9.410;2022-10-17T09:33:53;14.20;99.90
5870;DHT22;2961;47.702;9.410;2022-10-17T09:36:25;14.30;99.90
5870;DHT22;2961;47.702;9.410;2022-10-17T09:38:54;14.40;99.90
5870;DHT22;2961;47.702;9.410;2022-10-17T09:41:23;14.40;99.90
5870;DHT22;2961;47.702;9.410;2022-10-17T09:43:53;14.50;99.90
5870;DHT22;2961;47.702;9.410;2022-10-17T09:46:25;14.40;99.90
5870;DHT22;2961;47.702;9.410;2022-10-17T09:48:57;14.50;99.90
5870;DHT22;2961;47.702;9.410;2022-10-17T09:51:25;14.50;99.90
5870;DHT22;2961;47.702;9.410;2022-10-17T09:53:54;14.60;99.90
5870;DHT22;2961;47.702;9.410;2022-10-17T09:56:22;14.60;99.90
5870;DHT22;2961;47.702;9.410;2022-10-17T09:58:51;14.70;99.90
5870;DHT22;2961;47.702;9.410;2022-10-17T10:01:22;14.80;99.90
5870;DHT22;2961;47.702;9.410;2022-10-17T10:04:08;14.80;99.90
5870;DHT22;2961;47.702;9.410;2022-10-17T10:06:35;14.90;99.90
5870;DHT22;2961;47.702;9.410;2022-10-17T10:09:02;14.90;99.90
5870;DHT22;2961;47.702;9.410;2022-10-17T10:11:45;15.00;99.90
5870;DHT22;2961;47.702;9.410;2022-10-17T10:14:19;15.10;99.90
5870;DHT22;2961;47.702;9.410;2022-10-17T10:16:48;15.30;99.90
5870;DHT22;2961;47.702;9.410;2022-10-17T10:19:23;15.30;99.90
5870;DHT22;2961;47.702;9.410;2022-10-17T10:21:54;15.40;99.90
5870;DHT22;2961;47.702;9.410;2022-10-17T10:24:21;15.50;99.90
5870;DHT22;2961;47.702;9.410;2022-10-17T10:26:50;15.50;99.90
5870;DHT22;2961;47.702;9.410;2022-10-17T10:29:22;15.50;99.90
5870;DHT22;2961;47.702;9.410;2022-10-17T10:31:54;15.50;99.90
5870;DHT22;2961;47.702;9.410;2022-10-17T10:34:26;15.60;99.90
5870;DHT22;2961;47.702;9.410;2022-10-17T10:36:59;15.70;99.90
5870;DHT22;2961;47.702;9.410;2022-10-17T10:39:33;15.70;99.90
5870;DHT22;2961;47.702;9.410;2022-10-17T10:42:02;15.80;99.90
5870;DHT22;2961;47.702;9.410;2022-10-17T10:44:31;15.80;99.90
5870;DHT22;2961;47.702;9.410;2022-10-17T10:47:22;15.80;99.90
5870;DHT22;2961;47.702;9.410;2022-10-17T10:49:52;15.90;99.90
5870;DHT22;2961;47.702;9.410;2022-10-17T10:52:36;15.90;99.90
5870;DHT22;2961;47.702;9.410;2022-10-17T10:55:17;16.00;99.90
5870;DHT22;2961;47.702;9.410;2022-10-17T10:57:47;16.10;99.90
5870;DHT22;2961;47.702;9.410;2022-10-17T11:00:18;16.20;99.90
5870;DHT22;2961;47.702;9.410;2022-10-17T11:02:54;16.30;99.90
5870;DHT22;2961;47.702;9.410;2022-10-17T11:05:32;16.30;99.90
5870;DHT22;2961;47.702;9.410;2022-10-17T11:08:08;16.50;99.90
5870;DHT22;2961;47.702;9.410;2022-10-17T11:10:42;16.50;99.90
5870;DHT22;2961;47.702;9.410;2022-10-17T11:13:12;16.60;99.90
5870;DHT22;2961;47.702;9.410;2022-10-17T11:15:44;16.60;99.90
5870;DHT22;2961;47.702;9.410;2022-10-17T11:18:37;16.70;99.90
5870;DHT22;2961;47.702;9.410;2022-10-17T11:21:09;16.90;99.90
5870;DHT22;2961;47.702;9.410;2022-10-17T11:23:42;17.00;99.90
5870;DHT22;2961;47.702;9.410;2022-10-17T11:26:13;17.10;99.90
5870;DHT22;2961;47.702;9.410;2022-10-17T11:28:41;17.20;99.90
5870;DHT22;2961;47.702;9.410;2022-10-17T11:31:11;17.40;99.90
5870;DHT22;2961;47.702;9.410;2022-10-17T11:33:44;17.50;99.90
5870;DHT22;2961;47.702;9.410;2022-10-17T11:36:14;17.60;99.90
5870;DHT22;2961;47.702;9.410;2022-10-17T11:38:45;17.70;99.90
5870;DHT22;2961;47.702;9.410;2022-10-17T11:41:17;17.80;99.90
5870;DHT22;2961;47.702;9.410;2022-10-17T11:43:50;17.90;99.90
5870;DHT22;2961;47.702;9.410;2022-10-17T11:46:20;18.00;99.90
5870;DHT22;2961;47.702;9.410;2022-10-17T11:48:56;18.10;99.90
5870;DHT22;2961;47.702;9.410;2022-10-17T11:51:24;18.10;99.90
5870;DHT22;2961;47.702;9.410;2022-10-17T11:53:56;18.20;99.90
5870;DHT22;2961;47.702;9.410;2022-10-17T11:56:28;18.20;99.90
5870;DHT22;2961;47.702;9.410;2022-10-17T11:59:11;18.30;99.90
5870;DHT22;2961;47.702;9.410;2022-10-17T12:01:45;18.30;99.90
5870;DHT22;2961;47.702;9.410;2022-10-17T12:04:24;18.30;99.90
5870;DHT22;2961;47.702;9.410;2022-10-17T12:07:03;18.40;99.90
5870;DHT22;2961;47.702;9.410;2022-10-17T12:09:42;18.50;99.90
5870;DHT22;2961;47.702;9.410;2022-10-17T12:12:23;18.60;99.90
5870;DHT22;2961;47.702;9.410;2022-10-17T12:14:50;18.60;99.90
5870;DHT22;2961;47.702;9.410;2022-10-17T12:17:35;18.50;99.90
5870;DHT22;2961;47.702;9.410;2022-10-17T12:20:34;18.50;99.90
5870;DHT22;2961;47.702;9.410;2022-10-17T12:25:49;18.40;99.90
5870;DHT22;2961;47.702;9.410;2022-10-17T12:28:22;18.40;99.90
5870;DHT22;2961;47.702;9.410;2022-10-17T12:30:54;18.40;99.90
5870;DHT22;2961;47.702;9.410;2022-10-17T12:33:33;18.40;99.90
5870;DHT22;2961;47.702;9.410;2022-10-17T12:42:32;18.70;99.90
5870;DHT22;2961;47.702;9.410;2022-10-17T12:44:59;18.70;99.90
5870;DHT22;2961;47.702;9.410;2022-10-17T12:47:28;18.60;99.90
5870;DHT22;2961;47.702;9.410;2022-10-17T12:50:01;18.60;99.90
5870;DHT22;2961;47.702;9.410;2022-10-17T12:52:51;18.60;99.90
5870;DHT22;2961;47.702;9.410;2022-10-17T12:55:23;18.60;99.90
5870;DHT22;2961;47.702;9.410;2022-10-17T12:57:55;18.60;99.90
5870;DHT22;2961;47.702;9.410;2022-10-17T13:00:30;18.60;99.90
5870;DHT22;2961;47.702;9.410;2022-10-17T13:03:04;18.60;99.90
5870;DHT22;2961;47.702;9.410;2022-10-17T13:05:33;18.60;99.90
5870;DHT22;2961;47.702;9.410;2022-10-17T13:08:03;18.70;99.90
5870;DHT22;2961;47.702;9.410;2022-10-17T13:10:32;18.70;99.90
5870;DHT22;2961;47.702;9.410;2022-10-17T13:13:05;18.70;99.90
5870;DHT22;2961;47.702;9.410;2022-10-17T13:15:35;18.60;99.90
5870;DHT22;2961;47.702;9.410;2022-10-17T13:18:02;18.70;99.90
5870;DHT22;2961;47.702;9.410;2022-10-17T13:20:30;18.70;99.90
5870;DHT22;2961;47.702;9.410;2022-10-17T13:22:58;18.70;99.90
5870;DHT22;2961;47.702;9.410;2022-10-17T13:25:26;18.70;99.90
5870;DHT22;2961;47.702;9.410;2022-10-17T13:28:06;18.80;99.90
5870;DHT22;2961;47.702;9.410;2022-10-17T13:30:37;18.80;99.90
5870;DHT22;2961;47.702;9.410;2022-10-17T13:33:18;18.90;99.90
5870;DHT22;2961;47.702;9.410;2022-10-17T13:35:53;18.90;99.90
5870;DHT22;2961;47.702;9.410;2022-10-17T13:38:25;18.90;99.90
5870;DHT22;2961;47.702;9.410;2022-10-17T13:40:52;18.90;99.90
5870;DHT22;2961;47.702;9.410;2022-10-17T13:43:22;18.90;99.90
5870;DHT22;2961;47.702;9.410;2022-10-17T13:45:51;18.90;99.90
5870;DHT22;2961;47.702;9.410;2022-10-17T13:48:21;18.90;99.90
5870;DHT22;2961;47.702;9.410;2022-10-17T13:50:50;18.80;99.90
5870;DHT22;2961;47.702;9.410;2022-10-17T13:53:24;18.80;99.90
5870;DHT22;2961;47.702;9.410;2022-10-17T13:55:57;18.70;99.90
5870;DHT22;2961;47.702;9.410;2022-10-17T13:58:28;18.60;99.90
5870;DHT22;2961;47.702;9.410;2022-10-17T14:00:56;18.60;99.90
5870;DHT22;2961;47.702;9.410;2022-10-17T14:03:23;18.50;99.90
5870;DHT22;2961;47.702;9.410;2022-10-17T14:06:13;18.40;99.90
5870;DHT22;2961;47.702;9.410;2022-10-17T14:08:57;18.40;99.90
5870;DHT22;2961;47.702;9.410;2022-10-17T14:11:31;18.30;99.90
5870;DHT22;2961;47.702;9.410;2022-10-17T14:14:03;18.30;99.90
5870;DHT22;2961;47.702;9.410;2022-10-17T14:16:37;18.20;99.90
5870;DHT22;2961;47.702;9.410;2022-10-17T14:19:05;18.10;99.90
5870;DHT22;2961;47.702;9.410;2022-10-17T14:21:38;18.00;99.90
5870;DHT22;2961;47.702;9.410;2022-10-17T14:24:25;18.00;99.90
5870;DHT22;2961;47.702;9.410;2022-10-17T14:26:54;17.90;99.90
5870;DHT22;2961;47.702;9.410;2022-10-17T14:29:26;17.90;99.90
5870;DHT22;2961;47.702;9.410;2022-10-17T14:31:58;17.80;99.90
5870;DHT22;2961;47.702;9.410;2022-10-17T14:34:30;17.90;99.90
5870;DHT22;2961;47.702;9.410;2022-10-17T14:36:58;17.80;99.90
5870;DHT22;2961;47.702;9.410;2022-10-17T14:39:26;17.70;99.90
5870;DHT22;2961;47.702;9.410;2022-10-17T14:41:53;17.70;99.90
5870;DHT22;2961;47.702;9.410;2022-10-17T14:44:28;17.70;99.90
5870;DHT22;2961;47.702;9.410;2022-10-17T14:46:58;17.70;99.90
5870;DHT22;2961;47.702;9.410;2022-10-17T14:49:31;17.60;99.90
5870;DHT22;2961;47.702;9.410;2022-10-17T14:52:24;17.50;99.90
5870;DHT22;2961;47.702;9.410;2022-10-17T14:54:52;17.60;99.90
5870;DHT22;2961;47.702;9.410;2022-10-17T14:57:23;17.50;99.90
5870;DHT22;2961;47.702;9.410;2022-10-17T14:59:51;17.50;99.90
5870;DHT22;2961;47.702;9.410;2022-10-17T15:02:19;17.50;99.90
5870;DHT22;2961;47.702;9.410;2022-10-17T15:04:45;17.50;99.90
5870;DHT22;2961;47.702;9.410;2022-10-17T15:07:13;17.40;99.90
5870;DHT22;2961;47.702;9.410;2022-10-17T15:09:41;17.40;99.90
5870;DHT22;2961;47.702;9.410;2022-10-17T15:12:13;17.40;99.90
5870;DHT22;2961;47.702;9.410;2022-10-17T15:14:41;17.50;99.90
5870;DHT22;2961;47.702;9.410;2022-10-17T15:17:12;17.50;99.90
5870;DHT22;2961;47.702;9.410;2022-10-17T15:19:40;17.50;99.90
5870;DHT22;2961;47.702;9.410;2022-10-17T15:22:07;17.40;99.90
5870;DHT22;2961;47.702;9.410;2022-10-17T15:24:33;17.30;99.90
5870;DHT22;2961;47.702;9.410;2022-10-17T15:27:00;17.30;99.90
5870;DHT22;2961;47.702;9.410;2022-10-17T15:29:27;17.30;99.90
5870;DHT22;2961;47.702;9.410;2022-10-17T15:31:54;17.10;99.90
5870;DHT22;2961;47.702;9.410;2022-10-17T15:34:22;17.00;99.90
5870;DHT22;2961;47.702;9.410;2022-10-17T15:36:50;16.90;99.90
5870;DHT22;2961;47.702;9.410;2022-10-17T15:39:17;16.90;99.90
5870;DHT22;2961;47.702;9.410;2022-10-17T15:41:43;16.80;99.90
5870;DHT22;2961;47.702;9.410;2022-10-17T15:44:12;16.70;99.90
5870;DHT22;2961;47.702;9.410;2022-10-17T15:46:40;16.60;99.90
5870;DHT22;2961;47.702;9.410;2022-10-17T15:49:11;16.60;99.90
5870;DHT22;2961;47.702;9.410;2022-10-17T15:51:40;16.40;99.90
5870;DHT22;2961;47.702;9.410;2022-10-17T15:54:07;16.30;99.90
5870;DHT22;2961;47.702;9.410;2022-10-17T15:56:37;16.20;99.90
5870;DHT22;2961;47.702;9.410;2022-10-17T15:59:05;16.10;99.90
5870;DHT22;2961;47.702;9.410;2022-10-17T16:01:33;16.00;99.90
5870;DHT22;2961;47.702;9.410;2022-10-17T16:04:00;16.00;99.90
5870;DHT22;2961;47.702;9.410;2022-10-17T16:06:27;15.90;99.90
5870;DHT22;2961;47.702;9.410;2022-10-17T16:08:55;15.80;99.90
5870;DHT22;2961;47.702;9.410;2022-10-17T16:11:28;15.70;99.90
5870;DHT22;2961;47.702;9.410;2022-10-17T16:13:57;15.60;99.90
5870;DHT22;2961;47.702;9.410;2022-10-17T16:16:25;15.60;99.90
5870;DHT22;2961;47.702;9.410;2022-10-17T16:18:52;15.50;99.90
5870;DHT22;2961;47.702;9.410;2022-10-17T16:21:19;15.40;99.90
5870;DHT22;2961;47.702;9.410;2022-10-17T16:23:48;15.30;99.90
5870;DHT22;2961;47.702;9.410;2022-10-17T16:26:16;15.10;99.90
5870;DHT22;2961;47.702;9.410;2022-10-17T16:28:43;15.00;99.90
5870;DHT22;2961;47.702;9.410;2022-10-17T16:31:18;14.90;99.90
5870;DHT22;2961;47.702;9.410;2022-10-17T16:33:46;14.70;99.90
5870;DHT22;2961;47.702;9.410;2022-10-17T16:36:13;14.60;99.90
5870;DHT22;2961;47.702;9.410;2022-10-17T16:38:40;14.50;99.90
5870;DHT22;2961;47.702;9.410;2022-10-17T16:41:18;14.40;99.90
5870;DHT22;2961;47.702;9.410;2022-10-17T16:43:45;14.30;99.90
5870;DHT22;2961;47.702;9.410;2022-10-17T16:46:12;14.10;99.90